createdAt,value
2022-12-18T00:00:58.836Z,60.71
2022-12-18T00:04:06.084Z,60.22
2022-12-18T00:07:09.183Z,60.39
2022-12-18T00:10:11.937Z,60.64
2022-12-18T00:13:18.364Z,61.11
2022-12-18T00:16:23.512Z,61.14
2022-12-18T00:19:26.324Z,60.18
2022-12-18T00:22:29.080Z,60.30
2022-12-18T00:25:35.159Z,60.62
2022-12-18T00:28:38.177Z,60.74
2022-12-18T00:31:42.594Z,60.63
2022-12-18T00:34:45.428Z,60.51
2022-12-18T00:37:48.194Z,60.48
2022-12-18T00:40:51.067Z,60.02
2022-12-18T00:43:53.798Z,60.22
2022-12-18T00:46:56.688Z,60.45
2022-12-18T00:49:59.450Z,60.61
2022-12-18T00:53:02.204Z,60.64
2022-12-18T00:56:05.916Z,60.44
2022-12-18T00:59:08.828Z,60.22
2022-12-18T01:02:11.697Z,60.08
2022-12-18T01:05:15.114Z,59.92
2022-12-18T01:08:17.898Z,60.07
2022-12-18T01:11:22.212Z,60.00
2022-12-18T01:14:25.108Z,59.70
2022-12-18T01:17:27.860Z,60.15
2022-12-18T01:20:30.628Z,59.99
2022-12-18T01:23:33.377Z,59.70
2022-12-18T01:26:36.118Z,59.78
2022-12-18T01:29:38.895Z,60.00
2022-12-18T01:32:41.640Z,59.91
2022-12-18T01:35:44.757Z,59.62
2022-12-18T01:38:50.146Z,61.43
2022-12-18T01:42:04.991Z,60.55
2022-12-18T01:45:25.151Z,59.69
2022-12-18T01:48:27.921Z,58.27
2022-12-18T01:51:31.712Z,58.35
2022-12-18T01:54:34.511Z,59.67
2022-12-18T01:57:38.008Z,60.76
2022-12-18T02:00:41.390Z,61.63
2022-12-18T02:03:45.517Z,63.93
2022-12-18T02:06:52.628Z,66.37
2022-12-18T02:10:00.968Z,65.49
2022-12-18T02:13:13.307Z,64.78
2022-12-18T02:16:25.239Z,64.14
2022-12-18T02:19:53.080Z,63.37
2022-12-18T02:23:11.833Z,62.94
2022-12-18T02:26:21.446Z,62.39
2022-12-18T02:29:28.327Z,62.06
2022-12-18T02:32:34.662Z,61.80
2022-12-18T02:35:39.745Z,61.70
2022-12-18T02:38:44.707Z,61.28
2022-12-18T02:41:48.496Z,61.08
2022-12-18T02:44:52.420Z,61.12
2022-12-18T02:47:55.414Z,61.32
2022-12-18T02:51:08.126Z,61.12
2022-12-18T02:54:21.994Z,60.96
2022-12-18T02:57:35.505Z,60.62
2022-12-18T03:00:42.625Z,60.49
2022-12-18T03:03:50.825Z,60.10
2022-12-18T03:06:57.876Z,60.21
2022-12-18T03:10:02.620Z,60.01
2022-12-18T03:13:09.498Z,60.12
2022-12-18T03:16:16.451Z,60.08
2022-12-18T03:19:23.067Z,59.72
2022-12-18T03:22:30.973Z,59.60
2022-12-18T03:25:35.812Z,58.59
2022-12-18T03:28:45.243Z,58.24
2022-12-18T03:31:54.237Z,59.72
2022-12-18T03:35:03.124Z,61.06
2022-12-18T03:38:06.390Z,64.26
2022-12-18T03:41:17.480Z,65.87
2022-12-18T03:44:27.715Z,65.19
2022-12-18T03:47:35.122Z,64.46
2022-12-18T03:50:45.581Z,63.49
2022-12-18T03:53:54.324Z,62.89
2022-12-18T03:57:02.114Z,62.67
2022-12-18T04:00:09.371Z,62.12
2022-12-18T04:03:14.172Z,61.62
2022-12-18T04:06:18.241Z,61.26
2022-12-18T04:09:21.952Z,60.93
2022-12-18T04:12:27.411Z,60.71
2022-12-18T04:15:30.232Z,60.48
2022-12-18T04:18:33.181Z,60.42
2022-12-18T04:21:35.979Z,60.12
2022-12-18T04:24:38.748Z,59.86
2022-12-18T04:27:41.632Z,59.72
2022-12-18T04:30:44.427Z,59.80
2022-12-18T04:33:47.240Z,59.94
2022-12-18T04:36:50.086Z,59.92
2022-12-18T04:39:52.840Z,59.80
2022-12-18T04:42:55.687Z,60.14
2022-12-18T04:46:04.594Z,59.92
2022-12-18T04:49:07.824Z,59.91
2022-12-18T04:52:10.593Z,59.63
2022-12-18T04:55:13.341Z,59.76
2022-12-18T04:58:16.467Z,59.62
2022-12-18T05:01:20.017Z,58.08
2022-12-18T05:04:22.936Z,58.40
2022-12-18T05:07:26.020Z,59.72
2022-12-18T05:10:32.237Z,60.88
2022-12-18T05:13:39.874Z,63.36
2022-12-18T05:16:42.980Z,65.56
2022-12-18T05:19:46.710Z,65.22
2022-12-18T05:22:49.659Z,64.31
2022-12-18T05:25:54.068Z,63.52
2022-12-18T05:28:56.816Z,62.67
2022-12-18T05:31:59.568Z,62.38
2022-12-18T05:35:02.754Z,62.10
2022-12-18T05:38:05.540Z,61.80
2022-12-18T05:41:09.548Z,61.41
2022-12-18T05:44:12.321Z,61.16
2022-12-18T05:47:15.103Z,60.90
2022-12-18T05:50:18.419Z,60.70
2022-12-18T05:53:22.137Z,60.20
2022-12-18T05:56:24.892Z,60.09
2022-12-18T05:59:28.072Z,59.82
2022-12-18T06:02:30.958Z,59.73
2022-12-18T06:05:37.531Z,59.51
2022-12-18T06:08:45.867Z,58.40
2022-12-18T06:11:49.172Z,57.91
2022-12-18T06:14:51.932Z,59.20
2022-12-18T06:17:54.746Z,60.83
2022-12-18T06:20:58.237Z,61.72
2022-12-18T06:24:01.754Z,65.37
2022-12-18T06:27:04.876Z,66.12
2022-12-18T06:30:11.187Z,65.13
2022-12-18T06:33:13.249Z,64.40
2022-12-18T06:36:17.024Z,63.76
2022-12-18T06:39:19.762Z,62.93
2022-12-18T06:42:22.643Z,63.24
2022-12-18T06:45:25.556Z,61.68
2022-12-18T06:48:28.424Z,61.22
2022-12-18T06:51:31.183Z,60.74
2022-12-18T06:54:33.935Z,61.45
2022-12-18T06:57:36.975Z,60.77
2022-12-18T07:00:39.818Z,60.01
2022-12-18T07:03:43.994Z,59.98
2022-12-18T07:06:47.457Z,59.88
2022-12-18T07:09:51.766Z,58.43
2022-12-18T07:12:54.503Z,58.40
2022-12-18T07:16:03.435Z,59.80
2022-12-18T07:19:06.213Z,60.89
2022-12-18T07:22:08.968Z,63.41
2022-12-18T07:25:11.700Z,65.69
2022-12-18T07:28:17.528Z,65.05
2022-12-18T07:31:22.440Z,63.97
2022-12-18T07:34:25.581Z,62.78
2022-12-18T07:37:28.645Z,61.69
2022-12-18T07:40:31.356Z,61.24
2022-12-18T07:43:34.922Z,60.73
2022-12-18T07:46:37.752Z,60.00
2022-12-18T07:49:40.544Z,59.42
2022-12-18T07:52:43.300Z,57.76
2022-12-18T07:56:11.159Z,58.46
2022-12-18T07:59:09.229Z,59.35
2022-12-18T08:02:12.281Z,60.56
2022-12-18T08:05:15.569Z,61.28
2022-12-18T08:08:18.402Z,64.10
2022-12-18T08:11:21.497Z,65.97
2022-12-18T08:14:24.483Z,64.74
2022-12-18T08:17:27.251Z,63.37
2022-12-18T08:20:30.028Z,62.12
2022-12-18T08:23:32.835Z,61.14
2022-12-18T08:26:35.572Z,60.34
2022-12-18T08:29:38.552Z,59.87
2022-12-18T08:32:41.352Z,57.92
2022-12-18T08:35:46.009Z,57.20
2022-12-18T08:38:49.163Z,58.18
2022-12-18T08:42:10.095Z,59.21
2022-12-18T08:45:13.423Z,59.78
2022-12-18T08:48:21.895Z,60.48
2022-12-18T08:51:25.378Z,60.86
2022-12-18T08:54:28.266Z,62.80
2022-12-18T08:57:31.036Z,64.16
2022-12-18T09:00:33.771Z,63.49
2022-12-18T09:03:37.785Z,62.09
2022-12-18T09:06:40.913Z,61.09
2022-12-18T09:09:44.088Z,59.56
2022-12-18T09:12:46.886Z,56.59
2022-12-18T09:15:53.537Z,57.06
2022-12-18T09:18:59.872Z,57.38
2022-12-18T09:22:03.000Z,57.93
2022-12-18T09:25:08.623Z,58.81
2022-12-18T09:28:13.511Z,59.49
2022-12-18T09:31:17.650Z,59.89
2022-12-18T09:34:22.212Z,60.67
2022-12-18T09:37:25.280Z,62.13
2022-12-18T09:40:33.925Z,62.71
2022-12-18T09:43:41.864Z,61.05
2022-12-18T09:46:49.745Z,58.11
2022-12-18T09:49:57.591Z,56.87
2022-12-18T09:53:06.801Z,57.55
2022-12-18T09:56:16.960Z,58.55
2022-12-18T09:59:24.772Z,58.71
2022-12-18T10:02:31.257Z,57.87
2022-12-18T10:05:43.953Z,58.29
2022-12-18T10:08:54.614Z,58.88
2022-12-18T10:12:07.050Z,59.72
2022-12-18T10:15:18.417Z,62.16
2022-12-18T10:18:33.788Z,62.79
2022-12-18T10:21:46.595Z,61.18
2022-12-18T10:25:00.557Z,59.83
2022-12-18T10:28:11.345Z,57.59
2022-12-18T10:31:18.299Z,56.65
2022-12-18T10:34:21.305Z,57.49
2022-12-18T10:37:26.075Z,58.41
2022-12-18T10:40:28.874Z,59.41
2022-12-18T10:43:33.456Z,60.18
2022-12-18T10:46:36.424Z,60.83
2022-12-18T10:49:48.437Z,61.02
2022-12-18T10:52:58.572Z,63.78
2022-12-18T10:56:03.120Z,64.12
2022-12-18T10:59:07.936Z,63.03
2022-12-18T11:02:28.787Z,61.40
2022-12-18T11:05:33.257Z,60.15
2022-12-18T11:08:36.347Z,58.14
2022-12-18T11:11:39.161Z,56.98
2022-12-18T11:14:47.867Z,57.68
2022-12-18T11:17:52.737Z,58.64
2022-12-18T11:20:59.305Z,58.67
2022-12-18T11:24:02.588Z,58.81
2022-12-18T11:27:16.437Z,60.07
2022-12-18T11:30:25.532Z,60.51
2022-12-18T11:33:28.550Z,61.01
2022-12-18T11:36:36.392Z,62.77
2022-12-18T11:39:45.492Z,63.79
2022-12-18T11:42:55.645Z,61.60
2022-12-18T11:46:03.369Z,59.25
2022-12-18T11:49:13.187Z,55.20
2022-12-18T11:52:20.484Z,54.31
2022-12-18T11:55:34.425Z,55.00
2022-12-18T11:58:46.953Z,55.67
2022-12-18T12:01:53.830Z,56.58
2022-12-18T12:05:19.628Z,57.38
2022-12-18T12:08:32.954Z,56.99
2022-12-18T12:11:51.745Z,57.27
2022-12-18T12:15:04.252Z,57.93
2022-12-18T12:18:17.077Z,58.86
2022-12-18T12:21:26.820Z,59.45
2022-12-18T12:24:48.892Z,60.20
2022-12-18T12:28:01.357Z,60.12
2022-12-18T12:31:14.156Z,60.55
2022-12-18T12:34:22.611Z,63.12
2022-12-18T12:37:39.316Z,63.96
2022-12-18T12:40:53.960Z,62.68
2022-12-18T12:44:07.711Z,60.97
2022-12-18T12:47:15.424Z,59.32
2022-12-18T12:50:22.499Z,57.37
2022-12-18T12:53:31.738Z,58.18
2022-12-18T12:56:40.838Z,58.82
2022-12-18T12:59:53.601Z,59.94
2022-12-18T13:03:05.596Z,61.00
2022-12-18T13:06:18.493Z,63.07
2022-12-18T13:09:21.588Z,64.48
2022-12-18T13:12:45.575Z,63.95
2022-12-18T13:16:04.051Z,62.94
2022-12-18T13:19:25.683Z,62.01
2022-12-18T13:22:34.896Z,61.16
2022-12-18T13:25:38.796Z,60.40
2022-12-18T13:28:57.181Z,60.06
2022-12-18T13:32:03.341Z,59.67
2022-12-18T13:35:40.265Z,58.43
2022-12-18T13:38:44.248Z,57.96
2022-12-18T13:41:49.360Z,58.99
2022-12-18T13:44:52.431Z,59.73
2022-12-18T13:47:55.781Z,60.85
2022-12-18T13:51:04.923Z,61.41
2022-12-18T13:54:19.412Z,63.68
2022-12-18T13:57:30.189Z,65.61
2022-12-18T14:00:33.000Z,64.86
2022-12-18T14:03:35.992Z,63.20
2022-12-18T14:06:39.385Z,61.77
2022-12-18T14:09:46.497Z,60.94
2022-12-18T14:12:57.944Z,60.40
2022-12-18T14:16:07.527Z,60.23
2022-12-18T14:19:15.864Z,60.10
2022-12-18T14:22:21.732Z,59.92
2022-12-18T14:25:26.377Z,60.38
2022-12-18T14:28:29.314Z,59.64
2022-12-18T14:31:32.762Z,57.60
2022-12-18T14:34:35.535Z,58.02
2022-12-18T14:37:38.299Z,58.65
2022-12-18T14:40:41.073Z,59.50
2022-12-18T14:43:47.000Z,59.30
2022-12-18T14:46:51.611Z,59.42
2022-12-18T14:49:54.418Z,59.76
2022-12-18T14:52:57.196Z,59.89
2022-12-18T14:56:00.796Z,60.47
2022-12-18T14:59:06.444Z,61.14
2022-12-18T15:02:19.732Z,61.40
2022-12-18T15:05:28.717Z,63.82
2022-12-18T15:08:36.768Z,65.83
2022-12-18T15:11:47.024Z,64.70
2022-12-18T15:14:49.886Z,63.14
2022-12-18T15:17:59.086Z,61.77
2022-12-18T15:21:10.423Z,60.66
2022-12-18T15:24:21.064Z,59.73
2022-12-18T15:27:30.882Z,57.24
2022-12-18T15:30:33.777Z,56.71
2022-12-18T15:33:39.207Z,57.25
2022-12-18T15:36:42.314Z,57.99
2022-12-18T15:39:45.043Z,58.65
2022-12-18T15:43:07.460Z,59.65
2022-12-18T15:46:14.119Z,59.84
2022-12-18T15:49:16.885Z,60.42
2022-12-18T15:52:26.208Z,63.12
2022-12-18T15:55:47.703Z,64.41
2022-12-18T15:58:50.883Z,62.94
2022-12-18T16:01:54.577Z,61.28
2022-12-18T16:04:58.512Z,60.38
2022-12-18T16:08:02.053Z,60.14
2022-12-18T16:11:06.469Z,59.56
2022-12-18T16:14:18.914Z,58.04
2022-12-18T16:17:21.926Z,56.75
2022-12-18T16:20:24.692Z,56.19
2022-12-18T16:23:27.806Z,55.77
2022-12-18T16:26:38.063Z,55.37
2022-12-18T16:29:40.933Z,54.81
2022-12-18T16:32:44.260Z,54.43
2022-12-18T16:35:53.924Z,54.28
2022-12-18T16:38:56.893Z,54.15
2022-12-18T16:42:01.976Z,54.31
2022-12-18T16:45:11.878Z,53.86
2022-12-18T16:48:14.961Z,53.75
2022-12-18T16:51:18.056Z,53.79
2022-12-18T16:54:21.650Z,53.52
2022-12-18T16:57:25.227Z,52.67
2022-12-18T17:00:28.346Z,52.57
2022-12-18T17:03:31.112Z,52.47
2022-12-18T17:06:36.118Z,52.67
2022-12-18T17:09:39.655Z,52.51
2022-12-18T17:12:43.176Z,53.53
2022-12-18T17:15:46.695Z,52.98
2022-12-18T17:18:50.259Z,52.31
2022-12-18T17:21:53.964Z,52.33
2022-12-18T17:24:56.710Z,52.46
2022-12-18T17:27:59.558Z,52.59
2022-12-18T17:31:02.505Z,52.79
2022-12-18T17:34:05.608Z,52.91
2022-12-18T17:37:08.636Z,51.80
2022-12-18T17:40:12.748Z,51.97
2022-12-18T17:43:15.836Z,52.20
2022-12-18T17:46:19.901Z,51.82
2022-12-18T17:49:22.814Z,51.94
2022-12-18T17:52:25.726Z,51.32
2022-12-18T17:55:28.958Z,50.92
2022-12-18T17:58:32.622Z,50.91
2022-12-18T18:01:40.946Z,50.95
2022-12-18T18:04:45.368Z,50.79
2022-12-18T18:07:49.882Z,50.92
2022-12-18T18:11:15.637Z,51.23
2022-12-18T18:14:20.225Z,50.64
2022-12-18T18:17:23.124Z,50.41
2022-12-18T18:20:27.958Z,50.86
2022-12-18T18:23:32.455Z,50.38
2022-12-18T18:26:36.185Z,50.33
2022-12-18T18:29:39.515Z,49.72
2022-12-18T18:32:42.256Z,49.78
2022-12-18T18:35:53.850Z,49.79
2022-12-18T18:39:00.004Z,49.83
2022-12-18T18:42:03.241Z,50.05
2022-12-18T18:45:08.327Z,49.83
2022-12-18T18:48:11.372Z,49.61
2022-12-18T18:51:21.116Z,49.84
2022-12-18T18:54:24.554Z,50.00
2022-12-18T18:57:30.281Z,49.86
2022-12-18T19:00:33.623Z,50.08
2022-12-18T19:03:37.520Z,50.43
2022-12-18T19:06:40.990Z,50.14
2022-12-18T19:09:51.484Z,50.45
2022-12-18T19:13:12.337Z,50.35
2022-12-18T19:16:15.621Z,50.39
2022-12-18T19:19:20.433Z,50.20
2022-12-18T19:22:24.170Z,50.14
2022-12-18T19:25:40.569Z,49.68
2022-12-18T19:28:45.170Z,49.19
2022-12-18T19:31:48.013Z,49.36
2022-12-18T19:34:53.175Z,49.15
2022-12-18T19:37:56.500Z,49.03
2022-12-18T19:40:59.287Z,49.24
2022-12-18T19:44:07.705Z,49.28
2022-12-18T19:47:11.245Z,49.55
2022-12-18T19:50:14.604Z,49.94
2022-12-18T19:53:17.661Z,49.80
2022-12-18T19:56:24.085Z,49.58
2022-12-18T19:59:26.849Z,49.84
2022-12-18T20:02:30.603Z,49.49
2022-12-18T20:05:33.600Z,49.61
2022-12-18T20:08:36.555Z,49.66
2022-12-18T20:11:42.037Z,49.66
2022-12-18T20:14:45.233Z,49.41
2022-12-18T20:17:49.904Z,49.53
2022-12-18T20:20:52.915Z,49.56
2022-12-18T20:23:59.669Z,48.94
2022-12-18T20:27:04.723Z,48.97
2022-12-18T20:30:10.572Z,48.98
2022-12-18T20:33:13.712Z,48.82
2022-12-18T20:36:22.469Z,49.16
2022-12-18T20:39:26.975Z,49.44
2022-12-18T20:42:30.018Z,48.78
2022-12-18T20:45:33.039Z,47.98
2022-12-18T20:48:36.505Z,47.99
2022-12-18T20:51:39.235Z,47.95
2022-12-18T20:54:42.311Z,47.94
2022-12-18T20:57:45.341Z,47.73
2022-12-18T21:00:48.170Z,47.82
2022-12-18T21:03:52.145Z,47.87
2022-12-18T21:06:57.939Z,46.57
2022-12-18T21:10:06.537Z,46.26
2022-12-18T21:13:09.515Z,46.09
2022-12-18T21:16:14.337Z,46.63
2022-12-18T21:19:19.999Z,47.27
2022-12-18T21:22:23.347Z,45.65
2022-12-18T21:25:28.821Z,45.39
2022-12-18T21:28:31.580Z,45.65
2022-12-18T21:31:38.607Z,45.97
2022-12-18T21:34:47.511Z,45.81
2022-12-18T21:37:50.995Z,45.73
2022-12-18T21:40:53.764Z,45.87
2022-12-18T21:44:05.352Z,46.29
2022-12-18T21:47:21.805Z,46.22
2022-12-18T21:50:25.993Z,45.86
2022-12-18T21:53:29.259Z,45.80
2022-12-18T21:56:45.341Z,45.76
2022-12-18T21:59:48.908Z,45.66
2022-12-18T22:03:17.790Z,46.12
2022-12-18T22:06:14.405Z,46.06
2022-12-18T22:09:19.568Z,46.01
2022-12-18T22:12:34.691Z,46.06
2022-12-18T22:15:37.520Z,46.10
2022-12-18T22:18:40.360Z,45.89
2022-12-18T22:21:45.775Z,46.09
2022-12-18T22:24:49.411Z,46.06
2022-12-18T22:28:06.732Z,45.83
2022-12-18T22:31:09.907Z,45.64
2022-12-18T22:34:13.555Z,45.98
2022-12-18T22:37:16.445Z,46.11
2022-12-18T22:40:25.326Z,46.51
2022-12-18T22:43:28.477Z,46.45
2022-12-18T22:46:33.417Z,46.29
2022-12-18T22:49:37.001Z,46.36
2022-12-18T22:52:40.456Z,46.86
2022-12-18T22:55:43.188Z,47.04
2022-12-18T22:58:48.841Z,47.28
2022-12-18T23:01:57.105Z,47.51
2022-12-18T23:05:02.191Z,47.53
2022-12-18T23:08:05.735Z,47.68
2022-12-18T23:11:08.986Z,47.60
2022-12-18T23:14:12.188Z,47.76
2022-12-18T23:17:14.968Z,47.96
2022-12-18T23:20:17.851Z,47.96
2022-12-18T23:23:20.609Z,47.99
2022-12-18T23:26:25.443Z,48.08
2022-12-18T23:29:28.214Z,48.28
2022-12-18T23:32:30.964Z,48.26
2022-12-18T23:35:35.769Z,48.08
2022-12-18T23:38:39.515Z,46.93
2022-12-18T23:41:42.268Z,46.70
2022-12-18T23:44:45.043Z,46.60
2022-12-18T23:47:50.844Z,46.73
2022-12-18T23:50:54.133Z,46.58
2022-12-18T23:53:58.728Z,46.27
2022-12-18T23:57:01.753Z,46.62
